Time;durP1;ratioP1;P1;durP2;ratioP2;P2;SDS_P1;SDS_P2;PMS_P1;PMS_P2;Temp;Humidity;BMP_temperature;BMP_pressure;BME280_temperature;BME280_humidity;BME280_pressure;Samples;Min_cycle;Max_cycle;Signal;HPM_P1;HPM_P2
2022/07/18 00:02:19;;;;;;;1999.90;999.90;;;14.50;99.90;;;;;;5110324;27;20054;-76
2022/07/18 00:04:45;;;;;;;1999.90;999.90;;;14.40;99.90;;;;;;5094644;27;20054;-75
2022/07/18 00:07:13;;;;;;;1999.90;999.90;;;14.40;99.90;;;;;;5095248;27;20039;-76
2022/07/18 00:09:39;;;;;;;1999.90;999.90;;;14.40;99.90;;;;;;5095079;27;20122;-75
2022/07/18 00:12:07;;;;;;;1999.90;999.90;;;14.30;99.90;;;;;;5088425;27;20498;-75
2022/07/18 00:14:33;;;;;;;1999.90;999.90;;;14.30;99.90;;;;;;5100018;28;20414;-75
2022/07/18 00:16:59;;;;;;;1999.90;999.90;;;14.30;99.90;;;;;;5106423;27;20047;-75
2022/07/18 00:19:26;;;;;;;1999.90;999.90;;;14.20;99.90;;;;;;5113066;27;20098;-75
2022/07/18 00:21:51;;;;;;;1999.90;999.90;;;14.20;99.90;;;;;;5094864;27;20062;-75
2022/07/18 00:24:17;;;;;;;1999.90;999.90;;;14.20;99.90;;;;;;5093088;27;20051;-75
2022/07/18 00:26:43;;;;;;;1999.90;999.90;;;14.10;99.90;;;;;;5120363;27;20043;-75
2022/07/18 00:29:08;;;;;;;1999.90;999.90;;;14.10;99.90;;;;;;5094756;27;20499;-75
2022/07/18 00:31:34;;;;;;;1999.90;999.90;;;14.00;99.90;;;;;;5106946;27;20055;-76
2022/07/18 00:34:00;;;;;;;1999.90;999.90;;;14.10;99.90;;;;;;5094755;27;20031;-75
2022/07/18 00:36:26;;;;;;;1999.90;999.90;;;14.00;99.90;;;;;;5110343;27;20119;-75
2022/07/18 00:38:52;;;;;;;1999.90;999.90;;;14.10;99.90;;;;;;5084483;27;20055;-75
2022/07/18 00:41:18;;;;;;;1999.90;999.90;;;14.00;99.90;;;;;;5094096;27;20073;-75
2022/07/18 00:43:44;;;;;;;1999.90;999.90;;;14.10;99.90;;;;;;5094862;27;20031;-76
2022/07/18 00:46:11;;;;;;;1999.90;999.90;;;14.00;99.90;;;;;;5092998;27;20377;-75
2022/07/18 00:48:41;;;;;;;1999.90;999.90;;;14.00;99.90;;;;;;5108357;27;20040;-75
2022/07/18 00:51:07;;;;;;;1999.90;999.90;;;14.00;99.90;;;;;;5097319;27;20039;-75
2022/07/18 00:53:33;;;;;;;1999.90;999.90;;;13.90;99.90;;;;;;5110585;27;20043;-76
2022/07/18 00:56:00;;;;;;;1999.90;999.90;;;13.90;99.90;;;;;;5104510;27;20043;-76
2022/07/18 00:58:26;;;;;;;1999.90;999.90;;;13.90;99.90;;;;;;5099916;27;20065;-76
2022/07/18 01:03:36;;;;;;;1999.90;999.90;;;14.00;99.90;;;;;;5100569;27;20184;-76
2022/07/18 01:06:02;;;;;;;1999.90;999.90;;;13.90;99.90;;;;;;5094127;27;20122;-76
2022/07/18 01:08:28;;;;;;;1999.90;999.90;;;13.90;99.90;;;;;;5110692;27;20035;-75
2022/07/18 01:10:54;;;;;;;1999.90;999.90;;;13.90;99.90;;;;;;5087672;27;20043;-75
2022/07/18 01:13:21;;;;;;;1999.90;999.90;;;13.90;99.90;;;;;;5101328;27;20043;-75
2022/07/18 01:15:47;;;;;;;1999.90;999.90;;;13.90;99.90;;;;;;5108536;27;20042;-75
2022/07/18 01:18:12;;;;;;;1999.90;999.90;;;13.90;99.90;;;;;;5092502;27;20399;-76
2022/07/18 01:20:38;;;;;;;1999.90;999.90;;;13.90;99.90;;;;;;5093303;27;20042;-76
2022/07/18 01:23:04;;;;;;;1999.90;999.90;;;13.90;99.90;;;;;;5099792;27;20073;-76
2022/07/18 01:25:30;;;;;;;1999.90;999.90;;;13.80;99.90;;;;;;5090930;28;20134;-76
2022/07/18 01:27:56;;;;;;;1999.90;999.90;;;13.80;99.90;;;;;;5106491;27;20443;-76
2022/07/18 01:30:24;;;;;;;1999.90;999.90;;;13.70;99.90;;;;;;5107448;28;20035;-76
2022/07/18 01:33:01;;;;;;;1999.90;999.90;;;13.80;99.90;;;;;;5101664;27;20064;-76
2022/07/18 01:35:28;;;;;;;1999.90;999.90;;;13.80;99.90;;;;;;5108297;27;20150;-76
2022/07/18 01:37:55;;;;;;;1999.90;999.90;;;13.70;99.90;;;;;;5093210;27;20027;-76
2022/07/18 01:40:21;;;;;;;1999.90;999.90;;;13.70;99.90;;;;;;5106959;27;20055;-76
2022/07/18 01:42:48;;;;;;;1999.90;999.90;;;13.70;99.90;;;;;;5107225;27;20088;-76
2022/07/18 01:45:14;;;;;;;1999.90;999.90;;;13.70;99.90;;;;;;5084628;27;20495;-76
2022/07/18 01:47:40;;;;;;;1999.90;999.90;;;13.60;99.90;;;;;;5110167;27;20039;-76
2022/07/18 01:50:06;;;;;;;1999.90;999.90;;;13.60;99.90;;;;;;5107423;28;20035;-76
2022/07/18 01:52:31;;;;;;;1999.90;999.90;;;13.60;99.90;;;;;;5110569;27;20085;-76
2022/07/18 01:54:57;;;;;;;1999.90;999.90;;;13.60;99.90;;;;;;5083764;28;20071;-76
2022/07/18 01:57:23;;;;;;;1999.90;999.90;;;13.60;99.90;;;;;;5098162;27;20077;-76
2022/07/18 01:59:49;;;;;;;1999.90;999.90;;;13.60;99.90;;;;;;5092882;28;20082;-76
2022/07/18 02:02:15;;;;;;;1999.90;999.90;;;13.60;99.90;;;;;;5088753;28;20039;-76
2022/07/18 02:04:59;;;;;;;1999.90;999.90;;;13.60;99.90;;;;;;5093756;28;20373;-76
2022/07/18 02:07:33;;;;;;;1999.90;999.90;;;13.50;99.90;;;;;;5106869;28;20039;-76
2022/07/18 02:09:59;;;;;;;1999.90;999.90;;;13.40;99.90;;;;;;5104084;28;20043;-76
2022/07/18 02:12:25;;;;;;;1999.90;999.90;;;13.40;99.90;;;;;;5091739;28;20044;-76
2022/07/18 02:14:51;;;;;;;1999.90;999.90;;;13.30;99.90;;;;;;5103784;28;20049;-76
2022/07/18 02:17:18;;;;;;;1999.90;999.90;;;13.30;99.90;;;;;;5093767;28;20039;-75
2022/07/18 02:19:45;;;;;;;1999.90;999.90;;;13.30;99.90;;;;;;5089157;28;20035;-76
2022/07/18 02:22:10;;;;;;;1999.90;999.90;;;13.30;99.90;;;;;;5085038;28;20037;-76
2022/07/18 02:24:36;;;;;;;1999.90;999.90;;;13.30;99.90;;;;;;5107523;28;20046;-76
2022/07/18 02:27:02;;;;;;;1999.90;999.90;;;13.30;99.90;;;;;;5110174;28;20035;-76
2022/07/18 02:29:28;;;;;;;1999.90;999.90;;;13.30;99.90;;;;;;5087333;27;20402;-76
2022/07/18 02:31:53;;;;;;;1999.90;999.90;;;13.30;99.90;;;;;;5112894;27;20043;-76
2022/07/18 02:34:19;;;;;;;1999.90;999.90;;;13.20;99.90;;;;;;5096049;27;20055;-76
2022/07/18 02:36:45;;;;;;;1999.90;999.90;;;13.20;99.90;;;;;;5096896;27;20038;-76
2022/07/18 02:39:10;;;;;;;1999.90;999.90;;;13.20;99.90;;;;;;5113971;27;20053;-75
2022/07/18 02:41:36;;;;;;;1999.90;999.90;;;13.20;99.90;;;;;;5102777;27;20047;-75
2022/07/18 02:44:03;;;;;;;1999.90;999.90;;;13.20;99.90;;;;;;5096698;27;20035;-76
2022/07/18 02:46:28;;;;;;;1999.90;999.90;;;13.20;99.90;;;;;;5113289;27;20045;-76
2022/07/18 02:48:54;;;;;;;1999.90;999.90;;;13.20;99.90;;;;;;5108305;27;20035;-76
2022/07/18 02:51:19;;;;;;;1999.90;999.90;;;13.20;99.90;;;;;;5097295;27;20448;-76
2022/07/18 02:53:45;;;;;;;1999.90;999.90;;;13.20;99.90;;;;;;5111869;27;20035;-76
2022/07/18 02:56:11;;;;;;;1999.90;999.90;;;13.20;99.90;;;;;;5114024;27;20129;-76
2022/07/18 02:58:37;;;;;;;1999.90;999.90;;;13.20;99.90;;;;;;5112869;27;20043;-76
2022/07/18 03:01:03;;;;;;;1999.90;999.90;;;13.20;99.90;;;;;;5113700;27;20049;-76
2022/07/18 03:03:28;;;;;;;1999.90;999.90;;;13.10;99.90;;;;;;5111460;27;20103;-76
2022/07/18 03:05:54;;;;;;;1999.90;999.90;;;13.20;99.90;;;;;;5094099;27;20410;-76
2022/07/18 03:08:19;;;;;;;1999.90;999.90;;;13.20;99.90;;;;;;5109753;27;20062;-76
2022/07/18 03:10:45;;;;;;;1999.90;999.90;;;13.20;99.90;;;;;;5109752;27;20039;-76
2022/07/18 03:13:12;;;;;;;1999.90;999.90;;;13.20;99.90;;;;;;5112045;27;20174;-76
2022/07/18 03:15:39;;;;;;;1999.90;999.90;;;13.20;99.90;;;;;;5103969;27;20101;-76
2022/07/18 03:18:05;;;;;;;1999.90;999.90;;;13.20;99.90;;;;;;5095032;28;20078;-76
2022/07/18 03:20:31;;;;;;;1999.90;999.90;;;13.30;99.90;;;;;;5111693;27;20074;-75
2022/07/18 03:22:56;;;;;;;1999.90;999.90;;;13.30;99.90;;;;;;5092841;27;20475;-76
2022/07/18 03:25:22;;;;;;;1999.90;999.90;;;13.30;99.90;;;;;;5088866;27;20035;-76
2022/07/18 03:27:48;;;;;;;1999.90;999.90;;;13.40;99.90;;;;;;5102360;27;20453;-75
2022/07/18 03:30:13;;;;;;;1999.90;999.90;;;13.40;99.90;;;;;;5112057;27;20658;-76
2022/07/18 03:32:39;;;;;;;1999.90;999.90;;;13.40;99.90;;;;;;5095239;27;20042;-76
2022/07/18 03:35:05;;;;;;;1999.90;999.90;;;13.50;99.90;;;;;;5108094;27;20055;-76
2022/07/18 03:37:31;;;;;;;1999.90;999.90;;;13.50;99.90;;;;;;5094642;27;20068;-76
2022/07/18 03:39:57;;;;;;;1999.90;999.90;;;13.50;99.90;;;;;;5113621;27;20512;-76
2022/07/18 03:42:22;;;;;;;1999.90;999.90;;;13.40;99.90;;;;;;5106150;28;20543;-75
2022/07/18 03:44:48;;;;;;;1999.90;999.90;;;13.40;99.90;;;;;;5094367;27;20084;-75
2022/07/18 03:47:14;;;;;;;1999.90;999.90;;;13.40;99.90;;;;;;5099220;28;20048;-76
2022/07/18 03:49:39;;;;;;;1999.90;999.90;;;13.50;99.90;;;;;;5098345;27;20035;-76
2022/07/18 03:52:05;;;;;;;1999.90;999.90;;;13.50;99.90;;;;;;5109377;27;20042;-76
2022/07/18 03:54:31;;;;;;;1999.90;999.90;;;13.50;99.90;;;;;;5093513;27;20534;-76
2022/07/18 03:56:56;;;;;;;1999.90;999.90;;;13.50;99.90;;;;;;5104815;28;20031;-76
2022/07/18 03:59:22;;;;;;;1999.90;999.90;;;13.50;99.90;;;;;;5096607;28;20066;-76
2022/07/18 04:01:48;;;;;;;1999.90;999.90;;;13.50;99.90;;;;;;5109883;27;20039;-76
2022/07/18 04:04:13;;;;;;;1999.90;999.90;;;13.40;99.90;;;;;;5106812;27;20490;-76
2022/07/18 04:06:39;;;;;;;1999.90;999.90;;;13.40;99.90;;;;;;5110339;27;20538;-76
2022/07/18 04:09:05;;;;;;;1999.90;999.90;;;13.40;99.90;;;;;;5086011;27;20043;-76
2022/07/18 04:11:31;;;;;;;1999.90;999.90;;;13.50;99.90;;;;;;5108486;27;20043;-76
2022/07/18 04:13:56;;;;;;;1999.90;999.90;;;13.50;99.90;;;;;;5112772;27;20765;-75
2022/07/18 04:16:22;;;;;;;1999.90;999.90;;;13.50;99.90;;;;;;5095015;27;20042;-75
2022/07/18 04:18:48;;;;;;;1999.90;999.90;;;13.50;99.90;;;;;;5108667;27;20087;-76
2022/07/18 04:21:15;;;;;;;1999.90;999.90;;;13.50;99.90;;;;;;5112474;27;20572;-76
2022/07/18 04:23:40;;;;;;;1999.90;999.90;;;13.60;99.90;;;;;;5093309;27;20035;-75
2022/07/18 04:26:06;;;;;;;1999.90;999.90;;;13.60;99.90;;;;;;5094274;27;20087;-75
2022/07/18 04:28:32;;;;;;;1999.90;999.90;;;13.70;99.90;;;;;;5105685;27;20043;-76
2022/07/18 04:30:58;;;;;;;1999.90;999.90;;;13.70;99.90;;;;;;5112497;27;20806;-76
2022/07/18 04:33:24;;;;;;;1999.90;999.90;;;13.80;99.90;;;;;;5094808;27;20122;-75
2022/07/18 04:35:50;;;;;;;1999.90;999.90;;;13.90;99.90;;;;;;5084252;27;20578;-76
2022/07/18 04:38:15;;;;;;;1999.90;999.90;;;14.00;99.90;;;;;;5092978;27;20031;-75
2022/07/18 04:40:41;;;;;;;1999.90;999.90;;;14.10;99.90;;;;;;5112342;27;20055;-76
2022/07/18 04:43:10;;;;;;;1999.90;999.90;;;14.30;99.90;;;;;;5107822;27;20043;-75
2022/07/18 04:45:36;;;;;;;1999.90;999.90;;;14.40;99.90;;;;;;5095094;27;20035;-75
2022/07/18 04:48:04;;;;;;;1999.90;999.90;;;14.50;99.90;;;;;;5111449;27;20056;-76
2022/07/18 04:50:30;;;;;;;1999.90;999.90;;;14.70;99.90;;;;;;5086703;28;20071;-75
2022/07/18 04:52:56;;;;;;;1999.90;999.90;;;14.80;99.90;;;;;;5100410;27;20090;-75
2022/07/18 04:55:24;;;;;;;1999.90;999.90;;;14.90;99.90;;;;;;5084744;27;20087;-75
2022/07/18 04:57:50;;;;;;;1999.90;999.90;;;15.00;99.90;;;;;;5109728;27;20432;-75
2022/07/18 05:00:21;;;;;;;1999.90;999.90;;;15.10;99.90;;;;;;5092827;27;20031;-75
2022/07/18 05:02:50;;;;;;;1999.90;999.90;;;15.20;99.90;;;;;;5108629;27;20406;-75
2022/07/18 05:05:17;;;;;;;1999.90;999.90;;;15.30;99.90;;;;;;5097680;27;20540;-75
2022/07/18 05:07:44;;;;;;;1999.90;999.90;;;15.30;99.90;;;;;;5093346;27;20042;-75
2022/07/18 05:10:11;;;;;;;1999.90;999.90;;;15.40;99.90;;;;;;5093678;27;20050;-75
2022/07/18 05:12:39;;;;;;;1999.90;999.90;;;15.40;99.90;;;;;;5111122;27;20100;-76
2022/07/18 05:15:07;;;;;;;1999.90;999.90;;;15.40;99.90;;;;;;5102281;27;20405;-75
2022/07/18 05:17:33;;;;;;;1999.90;999.90;;;15.50;99.90;;;;;;5109924;27;20130;-75
2022/07/18 05:19:59;;;;;;;1999.90;999.90;;;15.50;99.90;;;;;;5090781;27;20036;-75
2022/07/18 05:22:27;;;;;;;1999.90;999.90;;;15.60;99.90;;;;;;5108013;27;20051;-76
2022/07/18 05:24:52;;;;;;;1999.90;999.90;;;15.70;99.90;;;;;;5107682;27;20391;-75
2022/07/18 05:27:18;;;;;;;1999.90;999.90;;;15.80;99.90;;;;;;5089708;27;20039;-75
2022/07/18 05:29:44;;;;;;;1999.90;999.90;;;15.80;99.90;;;;;;5116822;27;20407;-75
2022/07/18 05:32:11;;;;;;;1999.90;999.90;;;15.90;99.90;;;;;;5093447;27;20047;-75
2022/07/18 05:34:36;;;;;;;1999.90;999.90;;;15.90;99.90;;;;;;5091997;27;20035;-75
2022/07/18 05:37:02;;;;;;;1999.90;999.90;;;16.00;99.90;;;;;;5111489;28;20045;-75
2022/07/18 05:39:28;;;;;;;1999.90;999.90;;;16.00;99.90;;;;;;5093383;27;20051;-75
2022/07/18 05:41:53;;;;;;;1999.90;999.90;;;16.10;99.90;;;;;;5094101;27;20050;-75
2022/07/18 05:44:20;;;;;;;1999.90;999.90;;;16.10;99.90;;;;;;5092370;27;20566;-75
2022/07/18 05:46:48;;;;;;;1999.90;999.90;;;16.20;99.90;;;;;;5094257;27;20371;-75
2022/07/18 05:49:15;;;;;;;1999.90;999.90;;;16.20;99.90;;;;;;5092926;27;20447;-75
2022/07/18 05:51:41;;;;;;;1999.90;999.90;;;16.30;99.90;;;;;;5107335;27;20113;-75
2022/07/18 05:54:07;;;;;;;1999.90;999.90;;;16.40;99.90;;;;;;5091613;27;20042;-75
2022/07/18 05:56:33;;;;;;;1999.90;999.90;;;16.40;99.90;;;;;;5093134;28;20050;-75
2022/07/18 05:58:58;;;;;;;1999.90;999.90;;;16.60;99.90;;;;;;5094813;27;20043;-76
2022/07/18 06:01:24;;;;;;;1999.90;999.90;;;16.70;99.90;;;;;;5110303;28;20035;-75
2022/07/18 06:03:50;;;;;;;1999.90;999.90;;;16.70;99.90;;;;;;5099274;28;20023;-75
2022/07/18 06:06:18;;;;;;;1999.90;999.90;;;16.90;99.90;;;;;;5111130;28;20062;-75
2022/07/18 06:08:44;;;;;;;1999.90;999.90;;;17.00;99.90;;;;;;5083583;27;20511;-75
2022/07/18 06:11:10;;;;;;;1999.90;999.90;;;17.20;99.90;;;;;;5095205;28;20376;-75
2022/07/18 06:13:37;;;;;;;1999.90;999.90;;;17.30;99.90;;;;;;5110968;28;20476;-75
2022/07/18 06:16:04;;;;;;;1999.90;999.90;;;17.50;99.90;;;;;;5108453;28;20054;-75
2022/07/18 06:18:30;;;;;;;1999.90;999.90;;;17.60;99.90;;;;;;5108080;28;20047;-76
2022/07/18 06:20:55;;;;;;;1999.90;999.90;;;17.80;99.90;;;;;;5093797;28;20039;-75
2022/07/18 06:23:21;;;;;;;1999.90;999.90;;;18.00;99.90;;;;;;5093359;28;20100;-75
2022/07/18 06:25:46;;;;;;;1999.90;999.90;;;18.40;99.90;;;;;;5110371;28;20047;-75
2022/07/18 06:28:12;;;;;;;1999.90;999.90;;;18.90;99.90;;;;;;5121046;28;20054;-76
2022/07/18 06:30:38;;;;;;;1999.90;999.90;;;19.80;99.90;;;;;;5110695;28;20435;-76
2022/07/18 06:33:05;;;;;;;1999.90;999.90;;;19.90;99.90;;;;;;5105159;28;20039;-76
2022/07/18 06:35:31;;;;;;;1999.90;999.90;;;19.90;99.90;;;;;;5096807;28;20047;-75
2022/07/18 06:37:57;;;;;;;1999.90;999.90;;;19.80;99.90;;;;;;5107723;28;20104;-75
2022/07/18 06:40:25;;;;;;;1999.90;999.90;;;19.80;99.90;;;;;;5079629;28;20408;-76
2022/07/18 06:42:51;;;;;;;1999.90;999.90;;;19.80;99.90;;;;;;5104419;28;20453;-76
2022/07/18 06:45:17;;;;;;;1999.90;999.90;;;20.10;99.90;;;;;;5110719;28;20066;-76
2022/07/18 06:47:43;;;;;;;1999.90;999.90;;;20.60;99.90;;;;;;5091445;28;20070;-76
2022/07/18 06:50:13;;;;;;;1999.90;999.90;;;21.10;99.90;;;;;;5093486;28;20035;-76
2022/07/18 06:52:40;;;;;;;1999.90;999.90;;;21.90;99.90;;;;;;5093707;28;20047;-76
2022/07/18 06:55:07;;;;;;;1999.90;999.90;;;22.50;99.70;;;;;;5104680;28;20043;-75
2022/07/18 06:57:32;;;;;;;1999.90;999.90;;;23.10;99.90;;;;;;5110553;28;20047;-76
2022/07/18 06:59:58;;;;;;;1999.90;999.90;;;23.50;99.70;;;;;;5095942;28;20095;-76
2022/07/18 07:02:24;;;;;;;1999.90;999.90;;;23.70;95.70;;;;;;5101965;28;20457;-77
2022/07/18 07:04:49;;;;;;;1999.90;999.90;;;23.90;96.00;;;;;;5089554;28;20027;-76
2022/07/18 07:07:15;;;;;;;1999.90;999.90;;;24.50;95.60;;;;;;5101988;28;20043;-76
2022/07/18 07:09:41;;;;;;;1999.90;999.90;;;25.10;94.40;;;;;;5110032;28;20080;-76
2022/07/18 07:12:06;;;;;;;1999.90;999.90;;;25.30;92.40;;;;;;5089011;28;20118;-76
2022/07/18 07:14:32;;;;;;;1999.90;999.90;;;25.80;91.80;;;;;;5102844;28;20042;-75
2022/07/18 07:16:58;;;;;;;1999.90;999.90;;;25.90;88.20;;;;;;5112429;27;20039;-76
2022/07/18 07:19:23;;;;;;;1999.90;999.90;;;25.70;88.70;;;;;;5097108;27;20039;-76
2022/07/18 07:21:49;;;;;;;1999.90;999.90;;;25.70;85.00;;;;;;5091833;28;20035;-76
2022/07/18 07:24:14;;;;;;;1999.90;999.90;;;25.60;83.30;;;;;;5096207;27;20039;-76
2022/07/18 07:26:40;;;;;;;1999.90;999.90;;;25.60;87.90;;;;;;5114162;27;20406;-76
2022/07/18 07:29:05;;;;;;;1999.90;999.90;;;25.40;87.70;;;;;;5114216;27;20027;-76
2022/07/18 07:31:31;;;;;;;1999.90;999.90;;;25.40;85.50;;;;;;5112756;27;20099;-76
2022/07/18 07:33:57;;;;;;;1999.90;999.90;;;25.70;89.40;;;;;;5096382;27;20039;-76
2022/07/18 07:36:22;;;;;;;1999.90;999.90;;;25.90;85.80;;;;;;5083237;27;20468;-76
2022/07/18 07:38:48;;;;;;;1999.90;999.90;;;26.00;86.30;;;;;;5111958;27;20130;-76
2022/07/18 07:41:15;;;;;;;1999.90;999.90;;;26.20;80.80;;;;;;5113621;27;20047;-76
2022/07/18 07:43:41;;;;;;;1999.90;999.90;;;26.60;83.50;;;;;;5096772;27;20082;-76
2022/07/18 07:46:06;;;;;;;1999.90;999.90;;;26.80;81.40;;;;;;5109073;27;20063;-76
2022/07/18 07:48:32;;;;;;;1999.90;999.90;;;27.10;75.80;;;;;;5096511;27;20050;-76
2022/07/18 07:50:58;;;;;;;1999.90;999.90;;;27.50;77.60;;;;;;5098912;28;20047;-76
2022/07/18 07:53:23;;;;;;;1999.90;999.90;;;27.60;76.30;;;;;;5113463;27;20077;-76
2022/07/18 07:55:49;;;;;;;1999.90;999.90;;;27.60;76.00;;;;;;5112768;27;20046;-76
2022/07/18 07:58:14;;;;;;;1999.90;999.90;;;27.70;72.20;;;;;;5091636;27;20784;-76
2022/07/18 08:00:40;;;;;;;1999.90;999.90;;;27.50;71.20;;;;;;5112874;27;20039;-75
2022/07/18 08:03:07;;;;;;;1999.90;999.90;;;27.10;73.20;;;;;;5108591;27;20484;-76
2022/07/18 08:05:37;;;;;;;1999.90;999.90;;;26.90;72.10;;;;;;5107585;27;20042;-76
2022/07/18 08:08:03;;;;;;;1999.90;999.90;;;26.90;72.40;;;;;;5090099;27;20039;-76
2022/07/18 08:10:29;;;;;;;1999.90;999.90;;;27.00;74.10;;;;;;5077775;28;20035;-76
2022/07/18 08:12:55;;;;;;;1999.90;999.90;;;27.20;72.90;;;;;;5110161;27;20548;-76
2022/07/18 08:15:21;;;;;;;1999.90;999.90;;;27.20;72.60;;;;;;5091883;27;20046;-76
2022/07/18 08:17:46;;;;;;;1999.90;999.90;;;27.00;71.50;;;;;;5105572;27;20039;-76
2022/07/18 08:20:12;;;;;;;1999.90;999.90;;;26.50;71.00;;;;;;5100591;27;20517;-76
2022/07/18 08:22:54;;;;;;;1999.90;999.90;;;26.10;70.10;;;;;;5110877;27;20403;-76
2022/07/18 08:25:20;;;;;;;1999.90;999.90;;;25.90;73.80;;;;;;5093859;27;20410;-76
2022/07/18 08:27:46;;;;;;;1999.90;999.90;;;26.10;75.10;;;;;;5103521;27;20350;-76
2022/07/18 08:30:12;;;;;;;1999.90;999.90;;;26.40;75.10;;;;;;5078081;27;20502;-76
2022/07/18 08:32:37;;;;;;;1999.90;999.90;;;26.70;74.60;;;;;;5110469;27;20613;-76
2022/07/18 08:35:04;;;;;;;1999.90;999.90;;;27.00;72.90;;;;;;5098971;27;20056;-76
2022/07/18 08:37:30;;;;;;;1999.90;999.90;;;27.40;74.10;;;;;;5107979;27;20050;-76
2022/07/18 08:39:55;;;;;;;1999.90;999.90;;;27.50;70.60;;;;;;5084992;28;20416;-76
2022/07/18 08:42:25;;;;;;;1999.90;999.90;;;27.50;67.60;;;;;;5085730;28;20096;-76
2022/07/18 08:44:54;;;;;;;1999.90;999.90;;;27.50;69.50;;;;;;5101983;28;20120;-76
2022/07/18 08:47:20;;;;;;;1999.90;999.90;;;27.50;68.20;;;;;;5100739;28;20040;-76
2022/07/18 08:49:46;;;;;;;1999.90;999.90;;;27.50;69.70;;;;;;5108715;28;20035;-76
2022/07/18 08:52:12;;;;;;;1999.90;999.90;;;27.30;63.80;;;;;;5088437;28;20046;-76
2022/07/18 08:54:38;;;;;;;1999.90;999.90;;;27.20;65.90;;;;;;5088473;28;20043;-76
2022/07/18 08:57:03;;;;;;;1999.90;999.90;;;26.90;63.10;;;;;;5104757;27;20054;-76
2022/07/18 08:59:29;;;;;;;1999.90;999.90;;;26.70;64.40;;;;;;5091720;28;20053;-76
2022/07/18 09:01:55;;;;;;;1999.90;999.90;;;26.50;62.50;;;;;;5108208;28;20031;-76
2022/07/18 09:04:37;;;;;;;1999.90;999.90;;;26.30;64.10;;;;;;5108633;28;20126;-76
2022/07/18 09:07:04;;;;;;;1999.90;999.90;;;26.40;64.90;;;;;;5098247;28;20084;-77
2022/07/18 09:09:30;;;;;;;1999.90;999.90;;;26.60;65.90;;;;;;5084129;28;20036;-76
2022/07/18 09:12:02;;;;;;;1999.90;999.90;;;26.90;64.90;;;;;;5088678;28;20072;-77
2022/07/18 09:14:43;;;;;;;1999.90;999.90;;;27.20;64.00;;;;;;5091685;28;20047;-76
2022/07/18 09:17:16;;;;;;;1999.90;999.90;;;27.60;66.10;;;;;;5112701;27;20039;-77
2022/07/18 09:20:10;;;;;;;1999.90;999.90;;;27.90;67.80;;;;;;5099055;28;20475;-76
2022/07/18 09:22:37;;;;;;;1999.90;999.90;;;28.30;63.80;;;;;;5088774;28;20121;-76
2022/07/18 09:25:12;;;;;;;1999.90;999.90;;;28.50;63.40;;;;;;5088394;27;20130;-76
2022/07/18 09:27:46;;;;;;;1999.90;999.90;;;28.90;64.40;;;;;;5089810;28;20122;-76
2022/07/18 09:30:17;;;;;;;1999.90;999.90;;;29.20;62.90;;;;;;5104359;27;20044;-76
2022/07/18 09:32:53;;;;;;;1999.90;999.90;;;29.30;61.00;;;;;;5089312;28;20612;-75
2022/07/18 09:35:22;;;;;;;1999.90;999.90;;;29.30;61.60;;;;;;5085555;28;20398;-76
2022/07/18 09:38:07;;;;;;;1999.90;999.90;;;29.50;61.30;;;;;;5107800;28;20040;-76
2022/07/18 09:40:39;;;;;;;1999.90;999.90;;;29.50;59.80;;;;;;5106339;27;20153;-75
2022/07/18 09:43:07;;;;;;;1999.90;999.90;;;29.40;59.20;;;;;;5106062;28;20036;-76
2022/07/18 09:45:33;;;;;;;1999.90;999.90;;;29.50;59.50;;;;;;5082573;28;20483;-76
2022/07/18 09:48:02;;;;;;;1999.90;999.90;;;29.70;60.40;;;;;;5089642;28;20521;-77
2022/07/18 09:50:30;;;;;;;1999.90;999.90;;;29.80;59.00;;;;;;5089743;28;20081;-76
2022/07/18 09:53:05;;;;;;;1999.90;999.90;;;29.80;57.00;;;;;;5090835;28;20067;-76
2022/07/18 09:55:31;;;;;;;1999.90;999.90;;;30.00;57.00;;;;;;5098194;28;20054;-76
2022/07/18 09:58:01;;;;;;;1999.90;999.90;;;29.90;56.00;;;;;;5104879;27;20040;-76
2022/07/18 10:00:29;;;;;;;1999.90;999.90;;;30.10;58.90;;;;;;5092894;28;20084;-76
2022/07/18 10:02:56;;;;;;;1999.90;999.90;;;30.30;56.00;;;;;;5087495;28;20036;-77
2022/07/18 10:05:22;;;;;;;1999.90;999.90;;;30.30;53.20;;;;;;5086840;28;20089;-77
2022/07/18 10:07:47;;;;;;;1999.90;999.90;;;30.10;53.30;;;;;;5088504;28;20039;-76
2022/07/18 10:10:17;;;;;;;1999.90;999.90;;;29.90;53.70;;;;;;5087899;28;20039;-77
2022/07/18 10:12:43;;;;;;;1999.90;999.90;;;29.80;55.80;;;;;;5093584;28;20567;-77
2022/07/18 10:15:09;;;;;;;1999.90;999.90;;;30.00;55.20;;;;;;5097336;28;20059;-76
2022/07/18 10:17:35;;;;;;;1999.90;999.90;;;30.30;55.10;;;;;;5076737;28;20635;-77
2022/07/18 10:20:06;;;;;;;1999.90;999.90;;;30.40;52.50;;;;;;5093467;28;20124;-76
2022/07/18 10:22:43;;;;;;;1999.90;999.90;;;30.40;53.10;;;;;;5083141;28;20039;-77
2022/07/18 10:25:13;;;;;;;1999.90;999.90;;;30.60;52.90;;;;;;5101527;28;20122;-76
2022/07/18 10:27:52;;;;;;;1999.90;999.90;;;30.60;52.10;;;;;;5098720;28;20042;-77
2022/07/18 10:30:38;;;;;;;1999.90;999.90;;;30.60;51.20;;;;;;5076886;28;20035;-76
2022/07/18 10:33:36;;;;;;;1999.90;999.90;;;30.60;52.20;;;;;;5100252;28;20052;-76
2022/07/18 10:36:14;;;;;;;1999.90;999.90;;;30.40;50.50;;;;;;5087176;28;20044;-76
2022/07/18 10:39:03;;;;;;;1999.90;999.90;;;30.20;52.00;;;;;;5100168;28;20047;-75
2022/07/18 10:41:28;;;;;;;1999.90;999.90;;;30.20;50.80;;;;;;5100297;28;20472;-76
2022/07/18 10:43:54;;;;;;;1999.90;999.90;;;30.20;49.20;;;;;;5084265;28;20044;-75
2022/07/18 10:46:20;;;;;;;1999.90;999.90;;;30.20;51.10;;;;;;5084590;28;20503;-76
2022/07/18 10:48:56;;;;;;;1999.90;999.90;;;30.30;51.00;;;;;;5096184;28;20032;-77
2022/07/18 10:51:29;;;;;;;1999.90;999.90;;;30.50;52.30;;;;;;5092848;28;20039;-75
2022/07/18 10:53:59;;;;;;;1999.90;999.90;;;30.70;51.40;;;;;;5095906;27;20054;-76
2022/07/18 10:56:28;;;;;;;1999.90;999.90;;;30.80;50.50;;;;;;5105711;27;20040;-76
2022/07/18 10:59:14;;;;;;;1999.90;999.90;;;30.70;49.60;;;;;;5101689;27;20035;-76
2022/07/18 11:01:51;;;;;;;1999.90;999.90;;;30.70;49.80;;;;;;5109739;27;20047;-77
2022/07/18 11:04:30;;;;;;;1999.90;999.90;;;30.70;49.40;;;;;;5084571;27;20040;-76
2022/07/18 11:07:16;;;;;;;1999.90;999.90;;;30.80;50.60;;;;;;5105784;27;20032;-78
2022/07/18 11:09:47;;;;;;;1999.90;999.90;;;30.90;48.20;;;;;;5085635;28;20127;-77
2022/07/18 11:12:26;;;;;;;1999.90;999.90;;;30.70;50.20;;;;;;5104245;27;20177;-76
2022/07/18 11:15:10;;;;;;;1999.90;999.90;;;30.50;52.00;;;;;;5106147;27;20051;-77
2022/07/18 11:17:51;;;;;;;1999.90;999.90;;;30.50;53.90;;;;;;5107529;27;20043;-76
2022/07/18 11:20:42;;;;;;;1999.90;999.90;;;30.60;51.20;;;;;;5088945;28;20106;-76
2022/07/18 11:23:17;;;;;;;1999.90;999.90;;;30.80;50.40;;;;;;5117355;27;20046;-76
2022/07/18 11:25:43;;;;;;;1999.90;999.90;;;31.00;47.40;;;;;;5102696;27;20126;-77
2022/07/18 11:28:10;;;;;;;1999.90;999.90;;;31.00;49.80;;;;;;5107931;27;20040;-76
2022/07/18 11:30:37;;;;;;;1999.90;999.90;;;31.00;49.40;;;;;;5103593;28;20039;-78
2022/07/18 11:33:03;;;;;;;1999.90;999.90;;;31.20;47.20;;;;;;5110819;27;20110;-76
2022/07/18 11:35:29;;;;;;;1999.90;999.90;;;31.30;46.90;;;;;;5096816;27;20122;-77
2022/07/18 11:37:55;;;;;;;1999.90;999.90;;;31.40;46.30;;;;;;5103996;27;20096;-76
2022/07/18 11:40:21;;;;;;;1999.90;999.90;;;31.30;47.10;;;;;;5090497;28;20052;-76
2022/07/18 11:42:47;;;;;;;1999.90;999.90;;;31.20;49.60;;;;;;5109116;27;20048;-77
2022/07/18 11:45:16;;;;;;;1999.90;999.90;;;31.50;47.80;;;;;;5108014;27;20055;-76
2022/07/18 11:47:51;;;;;;;1999.90;999.90;;;31.70;47.60;;;;;;5110412;27;20044;-77
2022/07/18 11:50:25;;;;;;;1999.90;999.90;;;31.70;46.90;;;;;;5107347;27;20046;-77
2022/07/18 11:52:56;;;;;;;1999.90;999.90;;;31.80;47.20;;;;;;5105946;27;20044;-77
2022/07/18 11:55:35;;;;;;;1999.90;999.90;;;31.70;48.20;;;;;;5110273;27;20043;-77
2022/07/18 11:58:12;;;;;;;1999.90;999.90;;;31.70;45.90;;;;;;5109959;28;20051;-76
2022/07/18 12:00:39;;;;;;;1999.90;999.90;;;31.40;49.40;;;;;;5103732;27;20059;-76
2022/07/18 12:03:14;;;;;;;1999.90;999.90;;;31.40;49.70;;;;;;5092920;27;20046;-77
2022/07/18 12:05:45;;;;;;;1999.90;999.90;;;31.60;48.30;;;;;;5092525;28;20047;-76